createdAt,value
2019-06-07T00:02:05.903Z,11.10
2019-06-07T00:04:33.549Z,11.10
2019-06-07T00:07:01.105Z,11.10
2019-06-07T00:09:28.661Z,11.10
2019-06-07T00:11:56.232Z,11.20
2019-06-07T00:14:23.825Z,11.10
2019-06-07T00:16:51.430Z,11.00
2019-06-07T00:19:19.165Z,11.00
2019-06-07T00:22:15.483Z,10.90
2019-06-07T00:24:18.310Z,10.80
2019-06-07T00:26:57.639Z,10.70
2019-06-07T00:29:16.851Z,10.70
2019-06-07T00:31:43.896Z,10.60
2019-06-07T00:34:11.951Z,10.50
2019-06-07T00:36:40.740Z,10.40
2019-06-07T00:39:10.562Z,10.50
2019-06-07T00:41:38.311Z,10.40
2019-06-07T00:44:05.864Z,10.40
2019-06-07T00:46:33.409Z,10.30
2019-06-07T00:49:00.975Z,10.30
2019-06-07T00:51:47.552Z,10.30
2019-06-07T00:53:57.791Z,10.40
2019-06-07T00:56:25.338Z,10.40
2019-06-07T00:59:10.239Z,10.30
2019-06-07T01:01:24.890Z,10.20
2019-06-07T01:03:51.438Z,10.10
2019-06-07T01:06:22.647Z,10.10
2019-06-07T01:08:48.278Z,10.10
2019-06-07T01:11:16.055Z,10.20
2019-06-07T01:13:45.108Z,10.30
2019-06-07T01:16:13.741Z,10.30
2019-06-07T01:18:46.446Z,10.30
2019-06-07T01:21:10.797Z,10.30
2019-06-07T01:26:30.196Z,10.40
2019-06-07T01:28:56.354Z,10.30
2019-06-07T01:31:27.544Z,10.30
2019-06-07T01:33:53.211Z,10.30
2019-06-07T01:36:22.337Z,10.30
2019-06-07T01:38:50.037Z,10.20
2019-06-07T01:41:21.541Z,10.20
2019-06-07T01:43:46.872Z,10.20
2019-06-07T01:46:14.402Z,10.20
2019-06-07T01:48:49.392Z,10.20
2019-06-07T01:51:11.219Z,10.20
2019-06-07T01:53:38.798Z,10.10
2019-06-07T01:56:06.334Z,10.20
2019-06-07T01:58:33.883Z,10.10
2019-06-07T02:01:01.432Z,10.20
2019-06-07T02:03:32.172Z,10.10
2019-06-07T02:05:58.268Z,10.10
2019-06-07T02:08:27.267Z,10.10
2019-06-07T02:10:55.104Z,10.10
2019-06-07T02:13:23.748Z,10.10
2019-06-07T02:15:52.009Z,10.10
2019-06-07T02:18:21.779Z,10.10
2019-06-07T02:20:48.849Z,10.20
2019-06-07T02:23:16.398Z,10.20
2019-06-07T02:25:50.164Z,10.30
2019-06-07T02:28:27.554Z,10.30
2019-06-07T02:30:51.178Z,10.40
2019-06-07T02:33:11.786Z,10.30
2019-06-07T02:35:40.883Z,10.30
2019-06-07T02:38:08.656Z,10.20
2019-06-07T02:40:37.479Z,10.20
2019-06-07T02:43:05.354Z,10.20
2019-06-07T02:45:37.586Z,10.20
2019-06-07T02:48:02.172Z,10.30
2019-06-07T02:50:33.934Z,10.30
2019-06-07T02:52:59.007Z,10.40
2019-06-07T02:55:29.662Z,10.30
2019-06-07T02:57:55.851Z,10.40
2019-06-07T03:01:00.760Z,10.50
2019-06-07T03:03:12.767Z,10.50
2019-06-07T03:05:41.989Z,10.50
2019-06-07T03:08:09.515Z,10.50
2019-06-07T03:10:41.590Z,10.50
2019-06-07T03:13:06.388Z,10.50
2019-06-07T03:15:42.823Z,10.50
2019-06-07T03:18:05.413Z,10.50
2019-06-07T03:20:35.088Z,10.50
2019-06-07T03:23:03.010Z,10.40
2019-06-07T03:25:35.640Z,10.50
2019-06-07T03:28:01.476Z,10.50
2019-06-07T03:30:48.270Z,10.50
2019-06-07T03:32:58.313Z,10.50
2019-06-07T03:35:28.460Z,10.40
2019-06-07T03:37:55.141Z,10.40
2019-06-07T03:40:22.855Z,10.40
2019-06-07T03:42:50.413Z,10.40
2019-06-07T03:45:17.980Z,10.50
2019-06-07T03:47:45.549Z,10.60
2019-06-07T03:50:13.102Z,10.60
2019-06-07T03:52:41.665Z,10.60
2019-06-07T03:55:09.495Z,10.60
2019-06-07T03:58:29.359Z,10.70
2019-06-07T04:00:06.400Z,10.60
2019-06-07T04:02:37.732Z,10.60
2019-06-07T04:05:04.309Z,10.50
2019-06-07T04:07:32.992Z,10.50
2019-06-07T04:10:01.137Z,10.50
2019-06-07T04:12:31.669Z,10.50
2019-06-07T04:14:57.991Z,10.50
2019-06-07T04:17:25.544Z,10.60
2019-06-07T04:19:53.118Z,10.50
2019-06-07T04:22:20.658Z,10.60
2019-06-07T04:24:48.220Z,10.60
2019-06-07T04:27:15.779Z,10.60
2019-06-07T04:30:05.857Z,10.60
2019-06-07T04:32:12.622Z,10.60
2019-06-07T04:34:42.859Z,10.50
2019-06-07T04:37:09.448Z,10.50
2019-06-07T04:39:43.718Z,10.40
2019-06-07T04:42:06.272Z,10.30
2019-06-07T04:44:35.034Z,10.30
2019-06-07T04:47:03.114Z,10.40
2019-06-07T04:49:33.438Z,10.40
2019-06-07T04:51:59.923Z,10.40
2019-06-07T04:54:27.475Z,10.40
2019-06-07T04:56:55.016Z,10.50
2019-06-07T05:00:00.910Z,10.60
2019-06-07T05:01:51.907Z,10.60
2019-06-07T05:04:19.619Z,10.70
2019-06-07T05:06:47.160Z,10.80
2019-06-07T05:09:14.750Z,10.90
2019-06-07T05:11:44.763Z,10.90
2019-06-07T05:14:11.594Z,11.00
2019-06-07T05:16:43.682Z,11.10
2019-06-07T05:19:08.433Z,11.20
2019-06-07T05:21:58.407Z,11.30
2019-06-07T05:24:09.690Z,11.40
2019-06-07T05:26:37.717Z,11.50
2019-06-07T05:29:03.784Z,11.60
2019-06-07T05:31:35.337Z,11.70
2019-06-07T05:34:00.614Z,11.80
2019-06-07T05:36:28.162Z,11.90
2019-06-07T05:38:55.712Z,12.00
2019-06-07T05:41:23.270Z,12.10
2019-06-07T05:44:11.328Z,12.20
2019-06-07T05:46:20.133Z,12.30
2019-06-07T05:48:47.726Z,12.40
2019-06-07T05:51:15.281Z,12.40
2019-06-07T05:53:45.841Z,12.50
2019-06-07T05:56:13.079Z,12.60
2019-06-07T05:58:43.035Z,12.60
2019-06-07T06:03:40.458Z,12.90
2019-06-07T06:06:09.073Z,13.00
2019-06-07T06:08:39.264Z,13.10
2019-06-07T06:11:05.942Z,13.30
2019-06-07T06:13:34.399Z,13.40
2019-06-07T06:16:02.590Z,13.40
2019-06-07T06:18:30.195Z,13.50
2019-06-07T06:21:18.550Z,13.60
2019-06-07T06:23:27.051Z,13.70
2019-06-07T06:25:57.408Z,13.70
2019-06-07T06:28:23.882Z,13.80
2019-06-07T06:30:51.454Z,13.90
2019-06-07T06:33:32.979Z,13.90
2019-06-07T06:35:50.481Z,14.00
2019-06-07T06:38:17.618Z,14.10
2019-06-07T06:40:49.046Z,14.20
2019-06-07T06:43:14.481Z,14.30
2019-06-07T06:45:42.949Z,14.40
2019-06-07T06:48:11.320Z,14.50
2019-06-07T06:50:38.892Z,14.60
2019-06-07T06:53:07.617Z,14.70
2019-06-07T06:55:35.260Z,14.80
2019-06-07T06:58:02.820Z,14.80
2019-06-07T07:00:58.755Z,15.00
2019-06-07T07:03:56.726Z,15.00
2019-06-07T07:05:48.588Z,15.20
2019-06-07T07:08:14.447Z,15.30
2019-06-07T07:10:43.662Z,15.40
2019-06-07T07:13:11.220Z,15.60
2019-06-07T07:15:38.784Z,15.60
2019-06-07T07:18:08.736Z,15.60
2019-06-07T07:20:35.675Z,15.70
2019-06-07T07:23:03.209Z,15.80
2019-06-07T07:25:30.778Z,15.90
2019-06-07T07:27:58.315Z,16.00
2019-06-07T07:30:39.877Z,16.00
2019-06-07T07:34:20.114Z,16.00
2019-06-07T07:36:19.359Z,16.20
2019-06-07T07:38:25.364Z,16.30
2019-06-07T07:41:05.039Z,16.50
2019-06-07T07:43:22.440Z,16.60
2019-06-07T07:45:55.021Z,16.60
2019-06-07T07:48:19.295Z,16.70
2019-06-07T07:50:49.836Z,16.70
2019-06-07T07:53:16.135Z,16.80
2019-06-07T07:55:45.213Z,16.80
2019-06-07T07:58:12.967Z,16.90
2019-06-07T08:01:09.017Z,17.10
2019-06-07T08:03:09.840Z,17.20
2019-06-07T08:06:02.965Z,17.30
2019-06-07T08:08:30.524Z,17.50
2019-06-07T08:11:01.751Z,17.70
2019-06-07T08:13:28.064Z,17.80
2019-06-07T08:15:58.783Z,17.80
2019-06-07T08:18:25.051Z,18.00
2019-06-07T08:21:08.785Z,18.20
2019-06-07T08:23:21.896Z,18.30
2019-06-07T08:25:49.443Z,18.50
2019-06-07T08:28:17.028Z,18.60
2019-06-07T08:30:52.242Z,18.60
2019-06-07T08:33:26.118Z,18.60
2019-06-07T08:36:05.586Z,18.60
2019-06-07T08:38:26.713Z,18.80
2019-06-07T08:40:41.703Z,19.00
2019-06-07T08:43:19.849Z,19.20
2019-06-07T08:45:38.525Z,19.20
2019-06-07T08:48:26.584Z,19.30
2019-06-07T08:50:36.119Z,19.40
2019-06-07T08:53:11.818Z,19.60
2019-06-07T08:55:33.054Z,19.80
2019-06-07T08:58:04.220Z,19.90
2019-06-07T09:00:45.359Z,20.00
2019-06-07T09:03:06.491Z,20.00
2019-06-07T09:05:28.862Z,20.00
2019-06-07T09:08:22.282Z,20.10
2019-06-07T09:10:25.748Z,20.10
2019-06-07T09:12:54.391Z,20.30
2019-06-07T09:15:24.114Z,20.50
2019-06-07T09:20:36.378Z,20.90
2019-06-07T09:22:50.813Z,21.00
2019-06-07T09:25:21.859Z,21.20
2019-06-07T09:27:47.743Z,21.20
2019-06-07T09:30:18.973Z,21.30
2019-06-07T09:32:46.208Z,21.50
2019-06-07T09:35:17.638Z,21.50
2019-06-07T09:40:25.214Z,22.00
2019-06-07T09:42:43.339Z,22.20
2019-06-07T09:45:13.868Z,22.50
2019-06-07T09:47:40.192Z,22.80
2019-06-07T09:50:11.856Z,23.40
2019-06-07T09:52:57.287Z,24.00
2019-06-07T09:55:19.553Z,24.30
2019-06-07T09:57:35.645Z,24.40
2019-06-07T10:00:41.939Z,24.80
2019-06-07T10:02:53.338Z,24.80
2019-06-07T10:05:20.911Z,25.50
2019-06-07T10:08:02.611Z,25.90
2019-06-07T10:12:47.027Z,26.70
2019-06-07T10:15:14.608Z,27.30
2019-06-07T10:17:42.158Z,27.40
2019-06-07T10:20:09.922Z,28.20
2019-06-07T10:22:37.672Z,27.70
2019-06-07T10:25:06.330Z,28.80
2019-06-07T10:27:34.160Z,29.50
2019-06-07T10:30:02.341Z,30.40
2019-06-07T10:32:29.964Z,31.10
2019-06-07T10:34:57.513Z,31.40
2019-06-07T10:37:25.099Z,31.70
2019-06-07T10:39:52.722Z,31.50
2019-06-07T10:42:20.274Z,31.30
2019-06-07T10:44:47.845Z,31.50
2019-06-07T10:47:15.388Z,31.00
2019-06-07T10:49:42.968Z,31.90
2019-06-07T10:52:11.627Z,32.40
2019-06-07T10:54:39.867Z,32.60
2019-06-07T10:57:10.962Z,32.80
2019-06-07T10:59:36.843Z,33.10
2019-06-07T11:02:05.713Z,33.20
2019-06-07T11:04:33.386Z,33.30
2019-06-07T11:07:00.913Z,32.80
2019-06-07T11:09:28.558Z,32.10
2019-06-07T11:11:56.104Z,32.50
2019-06-07T11:14:23.665Z,32.00
2019-06-07T11:16:51.273Z,31.10
2019-06-07T11:19:19.787Z,30.10
2019-06-07T11:21:47.515Z,29.60
2019-06-07T11:24:18.649Z,29.20
2019-06-07T11:26:44.378Z,29.10
2019-06-07T11:29:12.798Z,28.60
2019-06-07T11:31:40.478Z,28.30
2019-06-07T11:34:08.260Z,27.80
2019-06-07T11:36:35.964Z,27.60
2019-06-07T11:39:04.976Z,27.40
2019-06-07T11:41:32.814Z,27.00
2019-06-07T11:44:00.374Z,26.70
2019-06-07T11:46:27.971Z,26.70
2019-06-07T11:48:55.510Z,26.60
2019-06-07T11:51:23.091Z,26.80
2019-06-07T11:53:50.620Z,26.60
2019-06-07T11:56:18.213Z,26.40
2019-06-07T11:58:45.826Z,26.20
2019-06-07T12:01:14.969Z,26.10
2019-06-07T12:03:42.707Z,26.00
2019-06-07T12:06:11.703Z,25.80
2019-06-07T12:08:39.722Z,25.70
2019-06-07T12:11:08.074Z,25.80
2019-06-07T12:13:35.870Z,25.80
2019-06-07T12:16:03.446Z,25.60
2019-06-07T12:18:31.014Z,25.50
2019-06-07T12:20:58.552Z,25.50
2019-06-07T12:23:26.099Z,25.60
2019-06-07T12:25:53.685Z,25.60
2019-06-07T12:28:21.262Z,25.70
2019-06-07T12:30:48.833Z,25.50
2019-06-07T12:33:17.714Z,25.40
2019-06-07T12:35:45.462Z,25.30
2019-06-07T12:38:14.568Z,25.30
2019-06-07T12:40:56.641Z,25.40
2019-06-07T12:43:12.390Z,25.40
2019-06-07T12:45:59.524Z,25.50
2019-06-07T12:48:27.106Z,25.50
2019-06-07T12:50:54.655Z,25.50
2019-06-07T12:53:26.618Z,25.60
2019-06-07T12:55:51.477Z,25.50
2019-06-07T12:58:28.164Z,25.50
2019-06-07T13:00:48.369Z,25.60
2019-06-07T13:03:16.280Z,25.70
2019-06-07T13:05:43.943Z,25.70
2019-06-07T13:08:11.492Z,25.60
2019-06-07T13:10:39.045Z,25.80
2019-06-07T13:13:06.575Z,25.80
2019-06-07T13:15:34.132Z,25.90
2019-06-07T13:18:01.739Z,25.90
2019-06-07T13:20:29.359Z,26.00
2019-06-07T13:22:56.938Z,25.90
2019-06-07T13:25:41.161Z,26.00
2019-06-07T13:27:53.786Z,26.00
2019-06-07T13:30:23.270Z,26.00
2019-06-07T13:32:50.660Z,26.10
2019-06-07T13:35:20.021Z,26.10
2019-06-07T13:37:47.492Z,26.10
2019-06-07T13:40:16.292Z,26.10
2019-06-07T13:42:44.043Z,26.20
2019-06-07T13:45:11.591Z,26.30
2019-06-07T13:47:39.172Z,26.30
2019-06-07T13:50:06.870Z,26.30
2019-06-07T13:52:34.428Z,26.30
2019-06-07T13:55:02.467Z,26.40
2019-06-07T13:57:30.506Z,26.30
2019-06-07T13:59:58.098Z,26.40
2019-06-07T14:02:27.219Z,26.40
2019-06-07T14:04:55.080Z,26.40
2019-06-07T14:07:23.644Z,26.40
2019-06-07T14:09:51.908Z,26.40
2019-06-07T14:12:19.463Z,26.50
2019-06-07T14:14:47.018Z,26.60
2019-06-07T14:17:14.576Z,26.60
2019-06-07T14:19:42.145Z,26.50
2019-06-07T14:22:09.680Z,26.50
2019-06-07T14:24:37.260Z,26.60
2019-06-07T14:27:07.846Z,26.60
2019-06-07T14:29:35.750Z,26.50
2019-06-07T14:32:03.574Z,26.60
2019-06-07T14:34:31.145Z,26.60
2019-06-07T14:36:58.703Z,26.70
2019-06-07T14:39:27.140Z,26.70
2019-06-07T14:42:08.574Z,26.70
2019-06-07T14:44:26.087Z,26.80
2019-06-07T14:46:53.358Z,26.80
2019-06-07T14:49:20.902Z,26.80
2019-06-07T14:51:48.444Z,26.80
2019-06-07T14:54:16.007Z,26.90
2019-06-07T14:56:43.687Z,26.90
2019-06-07T14:59:11.298Z,26.80
2019-06-07T15:01:40.727Z,26.90
2019-06-07T15:04:08.161Z,26.90
2019-06-07T15:06:35.711Z,26.90
2019-06-07T15:09:04.845Z,26.90
2019-06-07T15:11:33.127Z,26.90
2019-06-07T15:14:00.958Z,26.90
2019-06-07T15:16:30.011Z,27.00
2019-06-07T15:18:57.807Z,27.00
2019-06-07T15:21:26.618Z,27.10
2019-06-07T15:24:00.195Z,27.10
2019-06-07T15:26:28.363Z,27.10
2019-06-07T15:28:56.061Z,27.10
2019-06-07T15:31:23.637Z,27.10
2019-06-07T15:33:51.241Z,27.10
2019-06-07T15:36:18.804Z,27.00
2019-06-07T15:38:46.348Z,27.10
2019-06-07T15:41:13.939Z,27.00
2019-06-07T15:43:41.471Z,27.10
2019-06-07T15:46:09.037Z,27.00
2019-06-07T15:48:38.135Z,27.00
2019-06-07T15:51:05.933Z,27.00
2019-06-07T15:53:39.091Z,27.10
2019-06-07T15:56:02.779Z,27.10
2019-06-07T15:58:30.887Z,27.10
2019-06-07T16:00:58.619Z,27.20
2019-06-07T16:03:26.222Z,27.10
2019-06-07T16:05:53.769Z,27.10
2019-06-07T16:08:21.327Z,27.10
2019-06-07T16:10:48.861Z,27.10
2019-06-07T16:13:16.412Z,27.10
2019-06-07T16:15:43.959Z,27.10
2019-06-07T16:18:11.516Z,27.10
2019-06-07T16:20:39.599Z,27.10
2019-06-07T16:23:07.322Z,27.10
2019-06-07T16:25:35.794Z,27.10
2019-06-07T16:28:03.853Z,27.10
2019-06-07T16:30:31.387Z,27.10
2019-06-07T16:32:58.947Z,27.10
2019-06-07T16:35:26.521Z,27.10
2019-06-07T16:37:54.059Z,27.00
2019-06-07T16:40:21.625Z,26.90
2019-06-07T16:42:49.279Z,26.80
2019-06-07T16:45:16.803Z,26.80
2019-06-07T16:47:47.412Z,26.80
2019-06-07T16:50:13.717Z,26.60
2019-06-07T16:52:41.869Z,26.40
2019-06-07T16:55:09.752Z,26.20
2019-06-07T16:57:38.628Z,25.90
2019-06-07T17:00:07.788Z,25.70
2019-06-07T17:02:35.358Z,25.50
2019-06-07T17:05:03.974Z,25.20
2019-06-07T17:07:31.585Z,25.10
2019-06-07T17:09:59.169Z,25.00
2019-06-07T17:12:26.736Z,25.00
2019-06-07T17:14:54.287Z,24.90
2019-06-07T17:17:21.927Z,24.90
2019-06-07T17:19:49.459Z,24.80
2019-06-07T17:22:17.030Z,24.60
2019-06-07T17:24:45.519Z,24.50
2019-06-07T17:27:13.199Z,24.40
2019-06-07T17:29:42.010Z,24.30
2019-06-07T17:32:09.742Z,24.20
2019-06-07T17:34:37.326Z,24.10
2019-06-07T17:37:04.914Z,24.00
2019-06-07T17:39:32.469Z,23.80
2019-06-07T17:42:02.459Z,23.50
2019-06-07T17:44:29.311Z,23.30
2019-06-07T17:46:56.876Z,22.90
2019-06-07T17:49:24.437Z,22.50
2019-06-07T17:51:52.315Z,22.10
2019-06-07T17:54:20.028Z,22.00
2019-06-07T17:56:48.295Z,21.90
2019-06-07T17:59:15.906Z,21.60
2019-06-07T18:02:05.908Z,21.60
2019-06-07T18:04:32.152Z,21.30
2019-06-07T18:06:59.700Z,21.10
2019-06-07T18:09:27.251Z,20.70
2019-06-07T18:11:54.810Z,20.50
2019-06-07T18:14:22.363Z,20.40
2019-06-07T18:16:52.833Z,20.30
2019-06-07T18:19:20.448Z,20.20
2019-06-07T18:21:50.086Z,20.10
2019-06-07T18:24:17.290Z,20.00
2019-06-07T18:26:44.852Z,20.00
2019-06-07T18:29:12.431Z,19.80
2019-06-07T18:31:39.982Z,19.80
2019-06-07T18:34:07.663Z,19.70
2019-06-07T18:36:35.238Z,19.70
2019-06-07T18:39:02.855Z,19.80
2019-06-07T18:41:30.427Z,19.80
2019-06-07T18:43:57.985Z,19.70
2019-06-07T18:46:25.575Z,19.60
2019-06-07T18:48:53.139Z,19.40
2019-06-07T18:51:20.691Z,19.40
2019-06-07T18:53:49.760Z,19.40
2019-06-07T18:56:17.710Z,19.40
2019-06-07T18:58:45.284Z,19.40
2019-06-07T19:01:12.863Z,19.40
2019-06-07T19:03:40.425Z,19.30
2019-06-07T19:06:13.981Z,19.10
2019-06-07T19:08:41.530Z,19.10
2019-06-07T19:11:09.102Z,19.00
2019-06-07T19:13:36.653Z,18.90
2019-06-07T19:16:04.217Z,18.90
2019-06-07T19:18:31.754Z,18.90
2019-06-07T19:21:00.618Z,19.00
2019-06-07T19:23:28.413Z,18.90
2019-06-07T19:25:56.346Z,18.80
2019-06-07T19:28:24.059Z,18.70
2019-06-07T19:30:52.846Z,18.60
2019-06-07T19:33:20.543Z,18.60
2019-06-07T19:35:48.122Z,18.50
2019-06-07T19:38:17.096Z,18.50
2019-06-07T19:40:44.894Z,18.40
2019-06-07T19:43:12.442Z,18.50
2019-06-07T19:45:40.069Z,18.60
2019-06-07T19:48:07.636Z,18.50
2019-06-07T19:50:35.247Z,18.40
2019-06-07T19:53:04.078Z,18.50
2019-06-07T19:55:31.880Z,18.40
2019-06-07T19:57:59.654Z,18.40
2019-06-07T20:00:27.268Z,18.30
2019-06-07T20:02:55.844Z,18.30
2019-06-07T20:05:23.442Z,18.30
2019-06-07T20:07:51.185Z,18.30
2019-06-07T20:10:18.750Z,18.30
2019-06-07T20:12:46.292Z,18.30
2019-06-07T20:15:27.851Z,18.30
2019-06-07T20:17:43.300Z,18.30
2019-06-07T20:20:10.858Z,18.30
2019-06-07T20:22:38.748Z,18.30
2019-06-07T20:25:06.356Z,18.30
2019-06-07T20:27:33.899Z,18.30
2019-06-07T20:30:02.452Z,18.30
2019-06-07T20:32:30.155Z,18.30
2019-06-07T20:34:57.787Z,18.30
2019-06-07T20:37:25.548Z,18.30
2019-06-07T20:39:53.089Z,18.30
2019-06-07T20:42:20.647Z,18.20
2019-06-07T20:44:48.219Z,18.30
2019-06-07T20:47:15.770Z,18.30
2019-06-07T20:49:43.331Z,18.30
2019-06-07T20:52:11.035Z,18.30
2019-06-07T20:54:38.559Z,18.30
2019-06-07T20:57:06.780Z,18.20
2019-06-07T20:59:34.472Z,18.20
2019-06-07T21:02:03.004Z,18.20
2019-06-07T21:04:30.665Z,18.20
2019-06-07T21:06:59.208Z,18.20
2019-06-07T21:09:26.842Z,18.20
2019-06-07T21:11:54.454Z,18.20
2019-06-07T21:14:22.011Z,18.20
2019-06-07T21:16:49.565Z,18.20
2019-06-07T21:19:17.126Z,18.10
2019-06-07T21:21:44.661Z,17.90
2019-06-07T21:24:12.233Z,17.90
2019-06-07T21:26:39.796Z,17.80
2019-06-07T21:29:07.349Z,17.70
2019-06-07T21:31:34.912Z,17.60
2019-06-07T21:34:03.419Z,17.40
2019-06-07T21:36:31.741Z,17.40
2019-06-07T21:38:59.328Z,17.30
2019-06-07T21:41:26.873Z,17.30
2019-06-07T21:43:54.434Z,17.30
2019-06-07T21:46:22.060Z,17.40
2019-06-07T21:48:49.736Z,17.40
2019-06-07T21:51:17.283Z,17.50
2019-06-07T21:53:44.910Z,17.50
2019-06-07T21:56:13.447Z,17.10
2019-06-07T21:58:41.162Z,16.30
2019-06-07T22:01:11.922Z,15.80
2019-06-07T22:03:39.574Z,15.50
2019-06-07T22:06:07.645Z,15.30
2019-06-07T22:08:35.355Z,15.20
2019-06-07T22:11:03.751Z,15.10
2019-06-07T22:13:31.856Z,15.00
2019-06-07T22:15:59.923Z,15.10
2019-06-07T22:18:27.531Z,15.10
2019-06-07T22:20:55.074Z,15.10
2019-06-07T22:23:22.626Z,15.10
2019-06-07T22:25:50.248Z,15.00
2019-06-07T22:28:18.510Z,15.00
2019-06-07T22:30:46.115Z,15.00
2019-06-07T22:33:15.042Z,15.00
2019-06-07T22:35:42.813Z,15.10
2019-06-07T22:38:10.401Z,15.10
2019-06-07T22:40:37.952Z,15.20
2019-06-07T22:43:05.501Z,15.20
2019-06-07T22:45:33.055Z,15.20
2019-06-07T22:48:00.613Z,15.20
2019-06-07T22:50:28.250Z,15.20
2019-06-07T22:52:55.826Z,15.20
2019-06-07T22:55:23.380Z,15.20
2019-06-07T22:58:12.076Z,15.30
2019-06-07T23:00:39.630Z,15.20
2019-06-07T23:03:08.389Z,15.30
2019-06-07T23:05:36.147Z,15.40
2019-06-07T23:08:03.702Z,15.40
2019-06-07T23:10:31.275Z,15.40
2019-06-07T23:12:58.880Z,15.40
2019-06-07T23:15:26.435Z,15.30
2019-06-07T23:17:54.011Z,15.30
2019-06-07T23:20:21.544Z,15.40
2019-06-07T23:22:49.475Z,15.40
2019-06-07T23:25:21.968Z,15.40
2019-06-07T23:27:46.289Z,15.40
2019-06-07T23:30:14.590Z,15.50
2019-06-07T23:32:42.154Z,15.50
2019-06-07T23:35:10.669Z,15.40
2019-06-07T23:37:38.396Z,15.40
2019-06-07T23:40:05.952Z,15.30
2019-06-07T23:42:33.510Z,15.20
2019-06-07T23:45:01.164Z,15.20
2019-06-07T23:47:48.114Z,15.20
2019-06-07T23:50:15.822Z,15.20
2019-06-07T23:52:43.507Z,15.20
2019-06-07T23:55:11.776Z,15.10
2019-06-07T23:57:39.543Z,15.00
